SBOSBO BOD / LFBD
Speedbird OnlineSpeedbird Online BOD / LFBD

Bordeaux-Mérignac Airport
09:08 15°C

Location Bordeaux, France
Latitude: 44.828300476100004
Longitude: -0.715556025505
Web Airport Website | Wikipedia
Altitude 49 Meter / 162 Feet
Distance 745 KM / 463 Miles
from London.
Time Zone UTC +2 hours (Europe/Paris)
Codes IATA: BOD
ICAO: LFBD
Currency £1 equals EUR 1.15
Runways
RunwayLength (m)Surface
053100Asphalt
112415Asphalt
233100Asphalt
292415Asphalt
Radio
TypeDescriptionFrequency
APPAQUITAINE APP118.6
ARRAPP121.2
ATISATIS131.15
GNDGND121.9
INFOAQUITAINE INFO120.575
OPSOPNS143.175
TWRTWR118.3
Live ATC
METAR LFBD 060630Z AUTO 01008KT 9999 OVC007 15/14 Q1030 TEMPO 3000 -RADZ OVC004
TAF TAF LFBD 060500Z 0606/0712 02005KT 9999 OVC006 TX22/0712Z TN12/0706Z PROB30 TEMPO 0606/0610 3000 -RADZ OVC004 BECMG 0610/0612 BKN010 BECMG 0613/0615 CAVOK PROB30 TEMPO 0703/0706 1500 MIFG
Weather As Of 06 Oct 2022 09:08
Description Overcast clouds
Wind 15 km/h from North (10°)
Cloud Cover 100%
Precipitation Rain: none, Snow: none
Sunrise 08:06
Sunset 19:35
Lounges Salon des Vignobles , Terminal A
Rotations During the last 90 days there were
96 flights from LGW
97 flights to LGW


© 2017-2022 Speedbird Online